Aarschot, Belgium
Current Conditions -  °F | °C
As of 9:12 PM on Sunday 25 Jan 2015 (Local Time) from EBDT Reporting Station
Overcast Overcast  
Wind Chill:   Ceiling: 4900
Heat Index:   Visibility: 2.8mi
Dew Point:   Wind: 6mph
Humidity: 93%   Direction: 230°SW
Pressure: 30.39"   Gusts: NA
Location:  50.99°N, 4.84°E
Report Text: EBDT 252012Z AUTO 23005KT 4500 FEW026/// OVC049/// 03/02 Q1029 GRN
Loading
Personal Weather Stations






























Interactive Weather Map New forecast layout! Learn more

10-Day Weather Forecast

Advertisements
Track Severe Weather on mobile